Time;durP1;ratioP1;P1;durP2;ratioP2;P2;SDS_P1;SDS_P2;PMS_P1;PMS_P2;Temp;Humidity;BMP_temperature;BMP_pressure;BME280_temperature;BME280_humidity;BME280_pressure;Samples;Min_cycle;Max_cycle;Signal;HPM_P1;HPM_P2
2022/05/16 00:01:40;;;;;;;7.10;3.60;;;22.50;51.10;;;;;;5060135;28;20196;-96
2022/05/16 00:04:06;;;;;;;4.50;3.07;;;22.50;51.10;;;;;;5060038;28;20508;-96
2022/05/16 00:06:32;;;;;;;5.93;3.73;;;22.40;51.30;;;;;;5060014;28;20172;-96
2022/05/16 00:08:58;;;;;;;3.63;2.60;;;22.40;51.30;;;;;;5059914;28;20462;-96
2022/05/16 00:11:24;;;;;;;6.17;2.83;;;22.40;51.40;;;;;;5059996;28;20168;-95
2022/05/16 00:14:28;;;;;;;5.10;3.30;;;22.40;51.40;;;;;;5059869;28;20318;-96
2022/05/16 00:16:53;;;;;;;5.60;3.00;;;22.40;51.40;;;;;;5059791;28;20259;-96
2022/05/16 00:19:19;;;;;;;6.83;3.23;;;22.40;51.30;;;;;;5059773;28;20169;-96
2022/05/16 00:21:45;;;;;;;6.13;2.90;;;22.40;51.40;;;;;;5059607;28;20191;-94
2022/05/16 00:24:11;;;;;;;8.03;3.23;;;22.40;51.40;;;;;;5057642;28;20181;-94
2022/05/16 00:26:36;;;;;;;5.50;2.80;;;22.40;51.40;;;;;;5056127;28;20192;-94
2022/05/16 00:29:02;;;;;;;6.40;3.13;;;22.40;51.40;;;;;;5056179;28;20179;-94
2022/05/16 00:31:30;;;;;;;5.97;3.03;;;22.40;51.40;;;;;;5057371;28;20177;-95
2022/05/16 00:33:56;;;;;;;4.20;2.90;;;22.30;51.50;;;;;;5056059;28;20196;-94
2022/05/16 00:36:22;;;;;;;4.97;2.57;;;22.30;51.50;;;;;;5056656;28;20171;-94
2022/05/16 00:38:47;;;;;;;5.73;2.67;;;22.30;51.50;;;;;;5057067;28;20167;-95
2022/05/16 00:41:13;;;;;;;7.27;3.20;;;22.30;51.50;;;;;;5057112;28;20176;-94
2022/05/16 00:43:52;;;;;;;4.40;2.80;;;22.30;51.40;;;;;;5056575;28;20190;-94
2022/05/16 00:46:20;;;;;;;4.97;3.10;;;22.40;51.40;;;;;;5055699;28;20173;-95
2022/05/16 00:48:56;;;;;;;5.57;2.80;;;22.40;51.40;;;;;;5055961;28;20183;-94
2022/05/16 00:51:25;;;;;;;4.83;3.17;;;22.40;51.40;;;;;;5055317;28;20160;-94
2022/05/16 00:54:10;;;;;;;4.10;2.60;;;22.40;51.40;;;;;;5055769;28;20211;-94
2022/05/16 01:06:08;;;;;;;4.83;2.50;;;22.40;51.40;;;;;;5059356;28;20171;-96
2022/05/16 01:08:37;;;;;;;3.93;2.63;;;22.40;51.40;;;;;;5058762;28;20194;-96
2022/05/16 01:11:07;;;;;;;5.27;2.60;;;22.40;51.30;;;;;;5058851;28;20193;-96
2022/05/16 01:13:33;;;;;;;4.83;2.80;;;22.30;51.40;;;;;;5058736;28;20206;-96
2022/05/16 01:16:14;;;;;;;5.80;3.20;;;22.40;51.40;;;;;;5058611;28;20163;-96
2022/05/16 01:18:40;;;;;;;4.37;2.60;;;22.40;51.30;;;;;;5058712;28;20164;-95
2022/05/16 01:21:30;;;;;;;5.10;2.93;;;22.40;51.30;;;;;;5058679;28;20165;-96
2022/05/16 01:27:18;;;;;;;5.23;2.87;;;22.40;51.40;;;;;;5058920;28;20214;-96
2022/05/16 01:29:44;;;;;;;4.47;2.80;;;22.40;51.40;;;;;;5037959;28;20484;-94
2022/05/16 01:32:10;;;;;;;5.20;2.90;;;22.30;51.40;;;;;;5034698;28;20245;-94
2022/05/16 01:34:37;;;;;;;4.47;2.80;;;22.40;51.40;;;;;;5025555;28;20559;-94
2022/05/16 01:37:04;;;;;;;6.47;3.50;;;22.40;51.40;;;;;;5034513;28;20275;-94
2022/05/16 01:39:29;;;;;;;3.80;2.70;;;22.30;51.40;;;;;;5035186;28;20208;-94
2022/05/16 01:41:56;;;;;;;6.03;3.60;;;22.30;51.40;;;;;;5034272;28;20173;-94
2022/05/16 01:44:22;;;;;;;4.20;2.57;;;22.30;51.50;;;;;;5035167;28;20169;-94
2022/05/16 01:46:48;;;;;;;9.90;3.17;;;22.30;51.50;;;;;;5034221;28;20204;-94
2022/05/16 01:49:13;;;;;;;5.83;3.23;;;22.30;51.60;;;;;;5034409;28;20181;-94
2022/05/16 01:52:14;;;;;;;6.73;2.90;;;22.20;51.50;;;;;;5034840;28;20199;-94
2022/05/16 01:54:39;;;;;;;3.97;2.70;;;22.30;51.60;;;;;;5034710;28;20222;-94
2022/05/16 01:57:05;;;;;;;5.30;2.97;;;22.20;51.50;;;;;;5035186;28;20240;-94
2022/05/16 01:59:31;;;;;;;4.63;2.80;;;22.20;51.50;;;;;;5035064;28;20192;-94
2022/05/16 02:05:25;;;;;;;4.90;3.00;;;22.20;51.50;;;;;;5058653;28;20182;-95
2022/05/16 02:07:51;;;;;;;4.03;2.87;;;22.20;51.60;;;;;;5041558;28;20170;-94
2022/05/16 02:10:20;;;;;;;7.07;3.50;;;22.20;52.00;;;;;;5040808;28;20167;-94
2022/05/16 02:12:46;;;;;;;6.27;3.80;;;22.20;51.60;;;;;;5041388;28;20165;-94
2022/05/16 02:15:17;;;;;;;6.30;3.43;;;22.10;51.70;;;;;;5041329;28;20204;-94
2022/05/16 02:17:43;;;;;;;5.27;3.37;;;22.10;51.80;;;;;;5041108;28;20183;-95
2022/05/16 02:20:09;;;;;;;5.27;3.37;;;22.00;52.00;;;;;;5041232;28;20160;-94
2022/05/16 02:31:34;;;;;;;7.00;3.30;;;21.70;52.60;;;;;;5058218;28;20167;-94
2022/05/16 02:34:00;;;;;;;6.40;3.27;;;21.70;52.60;;;;;;5041219;28;20238;-94
2022/05/16 02:36:26;;;;;;;6.30;3.07;;;21.70;52.60;;;;;;5039151;28;20188;-94
2022/05/16 02:38:52;;;;;;;5.07;2.90;;;21.70;52.60;;;;;;5033359;28;20177;-94
2022/05/16 02:41:24;;;;;;;7.87;3.83;;;21.70;52.50;;;;;;5032353;28;20181;-94
2022/05/16 02:43:50;;;;;;;4.10;2.93;;;21.70;52.50;;;;;;5033824;28;20175;-94
2022/05/16 02:46:16;;;;;;;6.10;3.60;;;21.70;52.50;;;;;;5033652;28;20170;-95
2022/05/16 02:48:41;;;;;;;6.07;3.50;;;21.70;52.50;;;;;;5033232;28;20192;-95
2022/05/16 02:51:13;;;;;;;5.03;3.03;;;21.80;52.50;;;;;;5033105;28;20187;-94
2022/05/16 02:53:39;;;;;;;5.30;3.30;;;21.70;52.50;;;;;;5032891;28;20207;-94
2022/05/16 02:56:05;;;;;;;7.13;3.53;;;21.70;52.50;;;;;;5032630;28;20193;-94
2022/05/16 02:58:31;;;;;;;7.03;2.80;;;21.70;52.50;;;;;;5033024;28;20179;-93
2022/05/16 03:01:01;;;;;;;6.63;3.60;;;21.70;52.60;;;;;;5033000;28;20179;-95
2022/05/16 03:03:27;;;;;;;4.03;2.70;;;21.70;52.60;;;;;;5033875;28;20239;-94
2022/05/16 03:05:52;;;;;;;4.97;2.80;;;21.70;52.60;;;;;;5034584;28;20175;-94
2022/05/16 03:08:18;;;;;;;5.87;3.30;;;21.70;52.60;;;;;;5036162;28;20311;-94
2022/05/16 03:14:07;;;;;;;4.93;3.00;;;21.70;52.70;;;;;;5057926;28;20279;-94
2022/05/16 03:16:33;;;;;;;4.70;3.37;;;21.70;52.70;;;;;;5040860;28;20158;-94
2022/05/16 03:18:59;;;;;;;5.60;3.43;;;21.70;52.60;;;;;;5040838;28;20158;-93
2022/05/16 03:21:24;;;;;;;6.37;3.77;;;21.70;52.70;;;;;;5041932;28;20219;-94
2022/05/16 03:23:52;;;;;;;6.60;4.03;;;21.70;52.80;;;;;;5044380;28;20163;-94
2022/05/16 03:26:17;;;;;;;3.70;2.80;;;21.60;52.80;;;;;;5047916;28;20178;-92
2022/05/16 03:28:43;;;;;;;4.23;3.30;;;21.60;52.90;;;;;;5060835;28;20192;-94
2022/05/16 03:31:10;;;;;;;6.70;3.70;;;21.60;52.90;;;;;;5060762;28;20164;-93
2022/05/16 03:33:36;;;;;;;8.33;4.33;;;21.60;53.00;;;;;;5060731;28;20212;-94
2022/05/16 03:36:02;;;;;;;6.57;4.20;;;21.60;53.00;;;;;;5060735;28;20150;-94
2022/05/16 03:41:13;;;;;;;6.03;3.30;;;21.50;53.10;;;;;;5061111;28;20147;-94
2022/05/16 03:50:42;;;;;;;7.83;3.70;;;21.50;53.10;;;;;;5060860;28;20161;-96
2022/05/16 03:53:08;;;;;;;5.13;3.40;;;21.50;53.20;;;;;;5060244;28;20163;-95
2022/05/16 03:55:34;;;;;;;4.33;3.40;;;21.40;53.30;;;;;;5060234;28;20188;-96
2022/05/16 03:57:59;;;;;;;5.40;3.53;;;21.50;53.30;;;;;;5060036;28;20265;-96
2022/05/16 04:00:26;;;;;;;6.83;3.30;;;21.40;53.20;;;;;;5060272;28;20172;-96
2022/05/16 04:02:52;;;;;;;5.77;3.47;;;21.40;53.30;;;;;;5060262;28;20163;-96
2022/05/16 04:05:55;;;;;;;8.17;3.93;;;21.50;53.30;;;;;;5060109;28;20168;-96
2022/05/16 04:08:21;;;;;;;6.57;4.07;;;21.40;53.20;;;;;;5059984;28;20234;-96
2022/05/16 04:10:47;;;;;;;7.20;3.90;;;21.40;53.30;;;;;;5059874;28;20166;-95
2022/05/16 04:13:13;;;;;;;4.83;3.17;;;21.50;53.30;;;;;;5059936;28;20159;-96
2022/05/16 04:15:38;;;;;;;9.43;4.87;;;21.50;53.30;;;;;;5058922;28;20166;-94
2022/05/16 04:18:04;;;;;;;11.27;4.43;;;21.40;53.30;;;;;;5057115;28;20159;-95
2022/05/16 04:20:30;;;;;;;4.10;3.20;;;21.50;53.40;;;;;;5056526;28;20161;-95
2022/05/16 04:22:56;;;;;;;6.73;4.20;;;21.50;53.40;;;;;;5055693;28;20204;-94
2022/05/16 04:25:22;;;;;;;6.90;3.73;;;21.50;53.40;;;;;;5056028;28;20187;-94
2022/05/16 04:27:50;;;;;;;7.47;3.73;;;21.50;53.60;;;;;;5055099;28;20188;-95
2022/05/16 04:30:15;;;;;;;5.37;3.30;;;21.40;53.80;;;;;;5055916;28;20225;-94
2022/05/16 04:32:41;;;;;;;4.47;3.57;;;21.40;53.70;;;;;;5053868;28;20184;-94
2022/05/16 04:35:07;;;;;;;8.43;4.10;;;21.40;53.70;;;;;;5052744;28;20288;-93
2022/05/16 04:43:54;;;;;;;5.13;4.17;;;21.50;53.60;;;;;;5056913;28;20179;-94
2022/05/16 04:46:19;;;;;;;6.43;4.03;;;21.50;53.80;;;;;;5056629;28;20167;-94
2022/05/16 04:48:45;;;;;;;5.73;3.80;;;21.50;53.70;;;;;;5056578;28;20215;-94
2022/05/16 04:51:12;;;;;;;4.43;3.03;;;21.50;53.90;;;;;;5058589;28;20179;-96
2022/05/16 04:53:38;;;;;;;4.37;3.47;;;21.50;53.70;;;;;;5059030;28;20215;-95
2022/05/16 04:56:05;;;;;;;4.30;3.20;;;21.50;53.70;;;;;;5058984;28;20199;-96
2022/05/16 04:58:34;;;;;;;4.87;3.40;;;21.60;53.50;;;;;;5058983;28;20268;-96
2022/05/16 05:01:01;;;;;;;4.90;3.20;;;21.60;53.30;;;;;;5058853;28;20160;-95
2022/05/16 05:03:27;;;;;;;3.33;2.70;;;21.70;53.40;;;;;;5059037;28;20161;-95
2022/05/16 05:05:53;;;;;;;8.10;4.70;;;21.70;53.10;;;;;;5058929;28;20168;-95
2022/05/16 05:08:19;;;;;;;4.70;3.40;;;21.80;53.20;;;;;;5058884;28;20168;-96
2022/05/16 05:19:44;;;;;;;3.63;3.13;;;22.10;52.60;;;;;;5059117;28;20160;-96
2022/05/16 05:22:12;;;;;;;3.83;2.93;;;22.20;52.00;;;;;;5058442;28;20161;-94
2022/05/16 05:24:38;;;;;;;4.27;2.73;;;22.30;52.10;;;;;;5058133;28;20240;-96
2022/05/16 05:27:05;;;;;;;4.03;2.70;;;22.40;51.60;;;;;;5058078;28;20193;-96
2022/05/16 05:29:31;;;;;;;4.90;3.00;;;22.50;51.40;;;;;;5058460;28;20211;-96
2022/05/16 05:31:57;;;;;;;4.13;2.80;;;22.60;51.20;;;;;;5058020;28;20743;-96
2022/05/16 05:34:23;;;;;;;4.67;2.83;;;22.70;50.90;;;;;;5058066;28;20204;-95
2022/05/16 05:36:50;;;;;;;4.47;3.30;;;22.80;50.70;;;;;;5058062;28;20183;-96
2022/05/16 05:39:16;;;;;;;3.60;2.97;;;22.90;50.50;;;;;;5057797;28;20173;-95
2022/05/16 05:41:43;;;;;;;3.73;2.80;;;23.00;50.40;;;;;;5058187;28;20165;-95
2022/05/16 05:44:09;;;;;;;4.83;2.90;;;23.00;50.30;;;;;;5057339;28;20188;-96
2022/05/16 05:46:36;;;;;;;3.63;2.90;;;23.10;50.20;;;;;;5058208;28;20165;-96
2022/05/16 05:49:03;;;;;;;3.77;2.57;;;23.10;50.20;;;;;;5058018;28;20173;-96
2022/05/16 05:51:32;;;;;;;4.50;2.90;;;23.10;50.20;;;;;;5058148;28;20164;-96
2022/05/16 05:53:58;;;;;;;4.13;2.80;;;23.10;50.10;;;;;;5057945;28;20199;-96
2022/05/16 05:56:24;;;;;;;4.23;3.00;;;23.10;50.10;;;;;;5057860;28;20199;-94
2022/05/16 05:58:50;;;;;;;4.57;2.83;;;23.10;50.10;;;;;;5058141;28;20164;-95
2022/05/16 06:01:15;;;;;;;3.80;2.87;;;23.10;50.10;;;;;;5058051;28;20169;-93
2022/05/16 06:03:41;;;;;;;3.70;3.00;;;23.10;50.10;;;;;;5058160;28;20163;-94
2022/05/16 06:06:07;;;;;;;4.53;2.70;;;23.10;50.10;;;;;;5058055;28;20159;-95
2022/05/16 06:08:33;;;;;;;3.63;2.70;;;23.00;50.10;;;;;;5057934;28;20184;-94
2022/05/16 06:11:00;;;;;;;4.67;2.90;;;23.00;50.10;;;;;;5058083;28;20187;-94
2022/05/16 06:13:27;;;;;;;3.93;3.03;;;23.00;50.10;;;;;;5057964;28;20211;-94
2022/05/16 06:15:53;;;;;;;6.53;3.47;;;23.10;50.20;;;;;;5057942;28;20174;-94
2022/05/16 06:18:19;;;;;;;7.83;3.73;;;23.10;52.90;;;;;;5057886;28;20191;-94
2022/05/16 06:20:45;;;;;;;3.10;2.80;;;23.10;54.20;;;;;;5058000;28;20169;-95
2022/05/16 06:23:10;;;;;;;4.60;2.93;;;23.00;51.20;;;;;;5057938;28;20166;-95
2022/05/16 06:25:42;;;;;;;10.43;5.20;;;23.00;51.00;;;;;;5057866;28;20188;-95
2022/05/16 06:28:24;;;;;;;6.03;3.30;;;23.00;56.60;;;;;;5041296;28;20257;-94
2022/05/16 06:30:52;;;;;;;8.50;4.17;;;23.00;52.50;;;;;;5041321;28;20171;-95
2022/05/16 06:33:21;;;;;;;6.63;3.87;;;23.00;52.40;;;;;;5041363;28;20158;-94
2022/05/16 06:35:48;;;;;;;10.20;4.47;;;23.00;58.50;;;;;;5041256;28;20183;-94
2022/05/16 06:38:19;;;;;;;10.23;5.00;;;23.00;58.40;;;;;;5041206;28;20163;-93
2022/05/16 06:43:32;;;;;;;13.30;5.00;;;22.90;58.70;;;;;;5058282;28;20148;-94
2022/05/16 06:45:59;;;;;;;9.23;4.00;;;22.90;57.80;;;;;;5041239;28;20161;-93
2022/05/16 06:48:25;;;;;;;7.70;3.20;;;22.90;57.10;;;;;;5041171;28;20177;-93
2022/05/16 06:50:51;;;;;;;11.07;4.80;;;22.90;56.40;;;;;;5041154;28;20230;-94
2022/05/16 06:53:27;;;;;;;8.10;3.53;;;22.90;59.00;;;;;;5041048;28;20153;-94
2022/05/16 06:55:54;;;;;;;8.80;5.07;;;22.90;57.50;;;;;;5042847;28;20167;-95
2022/05/16 06:58:19;;;;;;;7.70;3.60;;;22.90;58.70;;;;;;5044834;28;20160;-95
2022/05/16 07:01:24;;;;;;;8.63;4.53;;;22.90;59.80;;;;;;5044844;28;20270;-95
2022/05/16 07:04:36;;;;;;;6.23;3.30;;;22.90;56.30;;;;;;5044567;28;20164;-94
2022/05/16 07:07:04;;;;;;;5.80;3.30;;;22.90;59.20;;;;;;5044300;28;20169;-95
2022/05/16 07:09:30;;;;;;;5.67;3.50;;;22.90;59.20;;;;;;5043999;28;20161;-95
2022/05/16 07:11:56;;;;;;;3.40;2.70;;;22.90;58.30;;;;;;5043604;28;20165;-94
2022/05/16 07:14:41;;;;;;;5.13;3.17;;;22.90;55.60;;;;;;5042975;28;20269;-94
2022/05/16 07:17:07;;;;;;;5.10;2.90;;;22.90;56.40;;;;;;5041184;28;20206;-94
2022/05/16 07:19:35;;;;;;;5.90;2.83;;;22.90;54.50;;;;;;5043420;28;20167;-93
2022/05/16 07:22:40;;;;;;;5.63;2.90;;;22.90;55.00;;;;;;5039368;28;20186;-94
2022/05/16 07:25:06;;;;;;;5.07;2.60;;;23.00;54.20;;;;;;5039790;28;20181;-95
2022/05/16 07:30:16;;;;;;;5.30;2.70;;;22.90;54.10;;;;;;5050814;28;20225;-93
2022/05/16 07:32:45;;;;;;;5.47;2.80;;;22.90;54.50;;;;;;5050639;28;20171;-94
2022/05/16 07:35:14;;;;;;;6.37;2.90;;;22.90;54.10;;;;;;5047486;28;20201;-94
2022/05/16 07:37:42;;;;;;;4.53;2.90;;;22.90;53.60;;;;;;5054403;28;20184;-94
2022/05/16 07:40:09;;;;;;;4.63;2.50;;;23.00;53.50;;;;;;5058494;28;20179;-95
2022/05/16 07:42:36;;;;;;;4.07;2.70;;;23.00;53.50;;;;;;5059269;28;20162;-94
2022/05/16 07:45:03;;;;;;;3.67;2.60;;;23.00;53.20;;;;;;5059887;28;20181;-94
2022/05/16 07:47:30;;;;;;;6.13;3.00;;;23.00;53.60;;;;;;5060057;28;20166;-95
2022/05/16 07:49:57;;;;;;;4.37;2.63;;;23.10;53.40;;;;;;5057078;28;20190;-95
2022/05/16 07:52:23;;;;;;;4.57;2.57;;;23.00;52.80;;;;;;5057933;28;20169;-94
2022/05/16 07:55:39;;;;;;;5.97;2.40;;;23.00;52.90;;;;;;5058595;28;20204;-95
2022/05/16 07:58:06;;;;;;;4.70;2.40;;;23.00;53.40;;;;;;5058932;28;20165;-94
2022/05/16 08:00:31;;;;;;;5.73;2.60;;;23.00;53.10;;;;;;5059261;28;20158;-94
2022/05/16 08:02:57;;;;;;;4.97;2.50;;;23.00;53.50;;;;;;5053363;28;20196;-94
2022/05/16 08:05:25;;;;;;;3.83;2.60;;;22.90;53.50;;;;;;5054794;28;20326;-94
2022/05/16 08:10:39;;;;;;;6.00;2.70;;;22.80;53.70;;;;;;5048403;28;20431;-93
2022/05/16 08:13:09;;;;;;;11.00;2.70;;;22.80;53.80;;;;;;5048819;28;20239;-94
2022/05/16 08:15:37;;;;;;;6.10;2.63;;;22.70;54.00;;;;;;5046816;28;20555;-94
2022/05/16 08:18:05;;;;;;;4.77;2.20;;;22.70;54.10;;;;;;5047032;28;20183;-94
2022/05/16 08:20:33;;;;;;;5.17;2.60;;;22.70;54.20;;;;;;5054660;28;20176;-94
2022/05/16 08:22:59;;;;;;;5.37;2.57;;;22.70;54.20;;;;;;5051783;28;20176;-94
2022/05/16 08:25:25;;;;;;;6.97;2.67;;;22.70;54.40;;;;;;5052179;28;20192;-94
2022/05/16 08:27:51;;;;;;;3.73;2.33;;;22.70;55.40;;;;;;5053907;28;20201;-94
2022/05/16 08:30:19;;;;;;;4.63;2.50;;;22.70;55.30;;;;;;5043723;28;20192;-94
2022/05/16 08:32:46;;;;;;;4.63;2.37;;;22.60;55.00;;;;;;5054157;28;20161;-94
2022/05/16 08:35:13;;;;;;;5.30;2.47;;;22.70;56.10;;;;;;5053541;28;20217;-93
2022/05/16 08:40:37;;;;;;;3.03;2.57;;;22.70;55.20;;;;;;5050315;28;20242;-93
2022/05/16 08:43:14;;;;;;;4.37;2.47;;;22.80;56.00;;;;;;5048952;28;20160;-94
2022/05/16 08:45:43;;;;;;;5.03;2.47;;;22.80;57.00;;;;;;5049981;28;20287;-93
2022/05/16 08:48:28;;;;;;;6.00;2.70;;;22.80;58.10;;;;;;5042587;28;20272;-94
2022/05/16 08:51:04;;;;;;;4.00;2.67;;;22.80;57.60;;;;;;5048345;28;20194;-94
2022/05/16 08:54:03;;;;;;;2.97;2.13;;;22.90;57.00;;;;;;5050031;28;20192;-94
2022/05/16 08:56:33;;;;;;;7.77;2.30;;;22.90;54.80;;;;;;5053526;28;20172;-94
2022/05/16 08:59:21;;;;;;;4.13;2.37;;;23.00;56.80;;;;;;5050848;28;20190;-95
2022/05/16 09:02:00;;;;;;;5.67;2.53;;;23.10;54.20;;;;;;5051241;28;20194;-94
2022/05/16 09:04:35;;;;;;;4.77;2.50;;;23.20;56.10;;;;;;5053105;28;20369;-94
2022/05/16 09:07:16;;;;;;;5.10;2.40;;;23.20;57.00;;;;;;5046136;28;20171;-94
2022/05/16 09:09:59;;;;;;;4.50;2.50;;;23.20;55.90;;;;;;5052361;28;20194;-94
2022/05/16 09:12:54;;;;;;;4.70;2.20;;;23.20;55.60;;;;;;5045590;28;20179;-94
2022/05/16 09:15:41;;;;;;;6.47;2.87;;;23.30;56.30;;;;;;5012483;28;20217;-94
2022/05/16 09:18:17;;;;;;;5.00;2.60;;;23.20;59.10;;;;;;5046815;28;20260;-94
2022/05/16 09:21:20;;;;;;;4.13;2.30;;;23.20;59.40;;;;;;5045630;28;20180;-94
2022/05/16 09:23:48;;;;;;;4.07;2.43;;;23.20;59.80;;;;;;5048047;28;20574;-94
2022/05/16 09:26:14;;;;;;;3.73;2.43;;;23.20;59.30;;;;;;5048485;28;20177;-94
2022/05/16 09:28:47;;;;;;;5.57;2.57;;;23.10;63.50;;;;;;5044499;28;20231;-94
2022/05/16 09:31:26;;;;;;;6.40;2.43;;;23.10;62.50;;;;;;5042645;28;20190;-94
2022/05/16 09:34:01;;;;;;;4.83;2.37;;;23.10;62.30;;;;;;5042563;28;20219;-94
2022/05/16 09:36:37;;;;;;;5.10;2.60;;;23.10;61.90;;;;;;5041977;28;20218;-94
2022/05/16 09:39:04;;;;;;;4.67;2.83;;;23.00;61.40;;;;;;5041980;28;20187;-94
2022/05/16 09:41:58;;;;;;;6.73;2.70;;;23.00;63.20;;;;;;5044395;28;20176;-94
2022/05/16 09:44:28;;;;;;;5.23;3.00;;;23.00;61.90;;;;;;5046373;28;20161;-94
2022/05/16 09:47:34;;;;;;;6.13;2.80;;;23.00;62.70;;;;;;5041865;28;20247;-93
2022/05/16 09:50:03;;;;;;;4.27;2.17;;;23.00;62.80;;;;;;5043263;28;20202;-93
2022/05/16 09:52:36;;;;;;;4.63;2.50;;;23.10;58.70;;;;;;5042337;28;20279;-94
2022/05/16 09:55:12;;;;;;;3.90;2.33;;;23.10;59.00;;;;;;5041733;28;20340;-93
2022/05/16 09:57:53;;;;;;;3.57;2.43;;;23.20;58.20;;;;;;5036735;28;20180;-94
2022/05/16 10:00:23;;;;;;;5.73;2.63;;;23.20;63.90;;;;;;5036315;28;20447;-94
2022/05/16 10:03:01;;;;;;;5.17;2.57;;;23.20;64.10;;;;;;5042613;28;20177;-94
2022/05/16 10:05:31;;;;;;;5.90;2.50;;;23.20;63.40;;;;;;5041015;28;20176;-94
2022/05/16 10:08:29;;;;;;;3.33;2.10;;;23.20;65.90;;;;;;5040381;28;20418;-94
2022/05/16 10:10:56;;;;;;;4.93;2.27;;;23.30;57.50;;;;;;5039869;28;20172;-93
2022/05/16 10:13:22;;;;;;;4.00;2.60;;;23.30;55.90;;;;;;5036833;28;20169;-94
2022/05/16 10:15:52;;;;;;;3.40;2.40;;;23.40;55.50;;;;;;5041476;28;20181;-94
2022/05/16 10:18:19;;;;;;;4.60;2.27;;;23.40;55.30;;;;;;5042984;28;20159;-94
2022/05/16 10:20:55;;;;;;;6.03;2.53;;;23.50;54.80;;;;;;5042182;28;20176;-93
2022/05/16 10:23:38;;;;;;;4.53;2.20;;;23.50;54.70;;;;;;5053403;28;20176;-94
2022/05/16 10:26:18;;;;;;;3.00;2.20;;;23.60;55.10;;;;;;5054100;28;20197;-94
2022/05/16 10:29:00;;;;;;;3.00;2.20;;;23.60;55.50;;;;;;5053984;28;20182;-94
2022/05/16 10:34:53;;;;;;;3.60;2.10;;;23.70;54.30;;;;;;5054097;28;20064;-94
2022/05/16 10:37:20;;;;;;;4.40;2.30;;;23.80;55.90;;;;;;5058306;28;20217;-94
2022/05/16 10:39:52;;;;;;;4.30;2.30;;;23.90;54.50;;;;;;5056794;28;20176;-94
2022/05/16 10:42:24;;;;;;;4.03;2.53;;;23.90;54.60;;;;;;5054032;28;20164;-94
2022/05/16 10:48:17;;;;;;;;;;;24.00;54.60;;;;;;5052283;28;20444;-92
2022/05/16 10:50:44;;;;;;;6.47;2.50;;;24.20;57.40;;;;;;5029438;28;20569;-92
2022/05/16 10:53:23;;;;;;;5.10;2.70;;;24.20;57.00;;;;;;5030852;28;20576;-93
2022/05/16 10:55:55;;;;;;;;;;;24.30;57.80;;;;;;5031070;28;20269;-92
2022/05/16 10:58:39;;;;;;;7.73;2.47;;;24.40;56.20;;;;;;5030142;28;19927;-91
2022/05/16 11:01:43;;;;;;;;;;;24.40;55.60;;;;;;5029488;28;20021;-91
2022/05/16 11:04:21;;;;;;;;;;;24.50;55.30;;;;;;4932920;29;20072;-91
2022/05/16 11:06:58;;;;;;;;;;;24.50;55.10;;;;;;4932393;29;20009;-91
2022/05/16 11:09:43;;;;;;;4.37;2.37;;;24.50;54.80;;;;;;4989784;28;20179;-91
2022/05/16 11:12:18;;;;;;;5.27;2.33;;;24.60;54.60;;;;;;5025857;28;20176;-91
2022/05/16 11:14:56;;;;;;;;;;;24.60;54.50;;;;;;5027328;28;20389;-91
2022/05/16 11:17:28;;;;;;;;;;;24.60;54.30;;;;;;5026839;28;19905;-92
2022/05/16 11:20:18;;;;;;;;;;;24.60;54.10;;;;;;5029176;28;20226;-91
2022/05/16 11:22:52;;;;;;;;;;;24.70;54.00;;;;;;5016862;28;20261;-92
2022/05/16 11:25:36;;;;;;;;;;;24.70;53.80;;;;;;5028839;28;19905;-91
2022/05/16 11:28:11;;;;;;;;;;;24.70;53.60;;;;;;5027547;28;20150;-92
2022/05/16 11:30:37;;;;;;;;;;;24.80;53.50;;;;;;5029518;28;19909;-91
2022/05/16 11:33:09;;;;;;;;;;;24.80;53.40;;;;;;5026825;28;19905;-90
2022/05/16 11:35:48;;;;;;;;;;;24.90;53.30;;;;;;5027871;28;19917;-90
2022/05/16 11:38:33;;;;;;;;;;;24.90;53.20;;;;;;5028021;28;20098;-91
2022/05/16 11:41:08;;;;;;;;;;;24.90;53.00;;;;;;5028091;28;20141;-91
2022/05/16 11:43:43;;;;;;;;;;;25.00;52.90;;;;;;5029753;28;20269;-91
2022/05/16 11:46:28;;;;;;;;;;;25.00;52.80;;;;;;5029621;28;19967;-91
2022/05/16 11:49:03;;;;;;;;;;;25.10;52.80;;;;;;5028191;28;19905;-91
2022/05/16 11:51:29;;;;;;;;;;;25.10;52.70;;;;;;5028038;28;20280;-91
2022/05/16 11:53:58;;;;;;;;;;;25.10;52.70;;;;;;5027183;28;19909;-90
2022/05/16 12:02:12;;;;;;;;;;;25.10;52.60;;;;;;5030549;28;19919;-92
2022/05/16 12:04:49;;;;;;;;;;;25.20;52.70;;;;;;5028947;28;19940;-92
2022/05/16 12:07:16;;;;;;;;;;;25.20;52.60;;;;;;5028113;28;20285;-92
2022/05/16 12:09:51;;;;;;;;;;;25.20;52.60;;;;;;5028751;28;20018;-92
2022/05/16 12:12:29;;;;;;;;;;;25.20;52.50;;;;;;5028022;28;19913;-92
2022/05/16 12:15:07;;;;;;;;;;;25.30;52.60;;;;;;5028612;28;20381;-92
2022/05/16 12:17:34;;;;;;;;;;;25.30;52.60;;;;;;5026841;28;19912;-92
2022/05/16 12:19:59;;;;;;;;;;;25.30;52.60;;;;;;5025066;28;20007;-92
2022/05/16 12:22:29;;;;;;;;;;;25.40;52.60;;;;;;5027317;28;19984;-91
2022/05/16 12:24:55;;;;;;;;;;;25.40;52.60;;;;;;5028730;28;19909;-92
2022/05/16 12:27:25;;;;;;;;;;;25.40;52.60;;;;;;5028047;28;19913;-92
2022/05/16 12:29:53;;;;;;;;;;;25.40;52.60;;;;;;5027885;28;19916;-92
2022/05/16 12:32:42;;;;;;;;;;;25.40;52.60;;;;;;5028409;28;19905;-92
2022/05/16 12:35:12;;;;;;;;;;;25.40;52.50;;;;;;5027973;28;20101;-91
2022/05/16 12:37:38;;;;;;;;;;;25.50;52.60;;;;;;5027864;28;19904;-91
2022/05/16 12:40:09;;;;;;;;;;;25.60;52.60;;;;;;5027002;28;19960;-91
2022/05/16 12:42:36;;;;;;;;;;;25.60;52.50;;;;;;5028262;28;19905;-91
2022/05/16 12:45:05;;;;;;;;;;;25.60;52.60;;;;;;5027976;28;19905;-91
2022/05/16 12:47:34;;;;;;;;;;;25.60;52.60;;;;;;5027714;28;19905;-91
2022/05/16 12:50:08;;;;;;;;;;;25.70;52.60;;;;;;5026109;28;19944;-91
2022/05/16 12:52:37;;;;;;;;;;;25.70;52.50;;;;;;5026130;28;20396;-91
2022/05/16 12:55:20;;;;;;;;;;;25.70;52.60;;;;;;5028144;28;19909;-91
2022/05/16 12:57:50;;;;;;;;;;;25.70;52.60;;;;;;5028327;28;20312;-91
2022/05/16 13:00:18;;;;;;;;;;;25.80;52.60;;;;;;5026052;28;19931;-91
2022/05/16 13:03:02;;;;;;;;;;;25.80;52.50;;;;;;5024752;28;19911;-91
2022/05/16 13:05:40;;;;;;;;;;;25.80;52.40;;;;;;5027920;28;19909;-91
2022/05/16 13:08:06;;;;;;;;;;;25.90;52.70;;;;;;5026414;28;20200;-91
2022/05/16 13:10:43;;;;;;;;;;;25.90;52.60;;;;;;5026862;28;19905;-90
2022/05/16 13:13:25;;;;;;;;;;;25.90;52.70;;;;;;5026255;28;19905;-91
2022/05/16 13:15:50;;;;;;;;;;;25.90;52.60;;;;;;5025511;28;20181;-91
2022/05/16 13:18:26;;;;;;;;;;;25.90;52.60;;;;;;5026324;28;20001;-91
2022/05/16 13:20:54;;;;;;;;;;;25.90;52.70;;;;;;5027384;28;19905;-90
2022/05/16 13:23:20;;;;;;;;;;;25.90;52.60;;;;;;5025417;28;19994;-91
2022/05/16 13:31:33;;;;;;;;;;;26.00;52.80;;;;;;5028001;28;19912;-90
2022/05/16 13:33:59;;;;;;;;;;;25.90;52.80;;;;;;5010754;28;19909;-91
2022/05/16 13:36:25;;;;;;;;;;;26.00;52.90;;;;;;5011554;28;19905;-91
2022/05/16 13:38:52;;;;;;;;;;;26.00;52.90;;;;;;5011004;28;19915;-91
2022/05/16 13:41:23;;;;;;;;;;;26.00;53.00;;;;;;5008233;28;19909;-91
2022/05/16 13:43:48;;;;;;;;;;;26.00;53.00;;;;;;5010198;28;19916;-92
2022/05/16 13:46:14;;;;;;;;;;;26.00;53.00;;;;;;5009439;28;19905;-92
2022/05/16 13:48:42;;;;;;;;;;;26.00;53.00;;;;;;5009625;28;19905;-91
2022/05/16 13:51:08;;;;;;;;;;;26.00;53.10;;;;;;5010315;28;19920;-91
2022/05/16 13:53:34;;;;;;;;;;;25.90;53.10;;;;;;5009960;28;19904;-91
2022/05/16 13:56:01;;;;;;;;;;;25.90;53.00;;;;;;5009014;28;19905;-90
2022/05/16 13:58:28;;;;;;;;;;;25.90;53.10;;;;;;5005055;28;20088;-91
2022/05/16 14:01:12;;;;;;;;;;;25.90;53.10;;;;;;5007846;28;19912;-91
2022/05/16 14:03:46;;;;;;;2.60;2.10;;;25.90;53.10;;;;;;5008556;28;19913;-90
2022/05/16 14:06:11;;;;;;;3.27;1.60;;;25.90;53.00;;;;;;5006599;28;20563;-91
2022/05/16 14:08:40;;;;;;;3.50;2.03;;;25.90;53.00;;;;;;5007783;28;20251;-92
2022/05/16 14:11:12;;;;;;;3.30;1.83;;;25.90;53.30;;;;;;5008715;28;20211;-92
2022/05/16 14:13:41;;;;;;;3.37;2.00;;;25.90;53.30;;;;;;5009274;28;20211;-92
2022/05/16 14:16:13;;;;;;;2.87;2.00;;;25.80;53.30;;;;;;5028213;28;20165;-93
2022/05/16 14:18:48;;;;;;;2.30;1.90;;;25.80;53.40;;;;;;5031109;28;20270;-94
2022/05/16 14:21:23;;;;;;;2.57;1.90;;;25.80;53.40;;;;;;5026385;28;20238;-94
2022/05/16 14:23:58;;;;;;;2.00;1.80;;;25.80;53.50;;;;;;5033963;28;20183;-95
2022/05/16 14:26:56;;;;;;;3.60;2.00;;;25.70;53.40;;;;;;5040980;28;20251;-94
2022/05/16 14:29:31;;;;;;;3.17;1.97;;;25.70;53.40;;;;;;5045608;28;20271;-94
2022/05/16 14:32:26;;;;;;;2.43;2.00;;;25.70;53.50;;;;;;5053484;28;20174;-94
2022/05/16 14:35:04;;;;;;;2.30;1.67;;;25.70;53.40;;;;;;5040465;28;20255;-95
2022/05/16 14:37:31;;;;;;;2.00;1.80;;;25.60;53.40;;;;;;5055468;28;20194;-94
2022/05/16 14:40:00;;;;;;;2.43;1.93;;;25.60;53.30;;;;;;5055948;28;20177;-95
2022/05/16 14:42:27;;;;;;;4.40;2.00;;;25.60;53.40;;;;;;5056784;28;20204;-94
2022/05/16 14:46:42;;;;;;;2.40;1.90;;;25.50;53.40;;;;;;5057415;28;20177;-95
2022/05/16 14:48:11;;;;;;;2.00;1.67;;;25.50;53.50;;;;;;5057581;28;20221;-95